createdAt,value
2022-09-03T00:00:14.632Z,0.85
2022-09-03T00:03:04.629Z,1.27
2022-09-03T00:05:45.692Z,1.30
2022-09-03T00:08:20.891Z,1.08
2022-09-03T00:10:53.572Z,1.02
2022-09-03T00:13:24.765Z,1.25
2022-09-03T00:15:54.322Z,1.00
2022-09-03T00:18:22.423Z,1.00
2022-09-03T00:20:49.184Z,1.30
2022-09-03T00:23:21.701Z,1.23
2022-09-03T00:26:08.468Z,1.17
2022-09-03T00:28:59.889Z,0.93
2022-09-03T00:31:32.201Z,1.30
2022-09-03T00:34:02.146Z,0.98
2022-09-03T00:36:35.730Z,0.70
2022-09-03T00:39:02.219Z,0.90
2022-09-03T00:41:33.602Z,1.00
2022-09-03T00:44:21.573Z,0.90
2022-09-03T00:47:01.994Z,1.17
2022-09-03T00:49:54.336Z,1.08
2022-09-03T00:52:41.694Z,1.10
2022-09-03T00:55:27.037Z,0.90
2022-09-03T00:58:29.879Z,0.88
2022-09-03T01:00:56.586Z,0.90
2022-09-03T01:03:24.053Z,1.13
2022-09-03T01:05:50.504Z,1.13
2022-09-03T01:08:32.153Z,1.13
2022-09-03T01:11:19.945Z,0.80
2022-09-03T01:13:50.176Z,1.05
2022-09-03T01:16:16.610Z,1.10
2022-09-03T01:19:09.682Z,1.48
2022-09-03T01:21:55.323Z,0.90
2022-09-03T01:24:29.900Z,1.05
2022-09-03T01:27:11.041Z,1.00
2022-09-03T01:29:40.715Z,0.98
2022-09-03T01:32:15.615Z,1.33
2022-09-03T01:34:51.290Z,1.23
2022-09-03T01:37:17.734Z,0.90
2022-09-03T01:39:55.493Z,1.10
2022-09-03T01:42:25.406Z,0.95
2022-09-03T01:44:52.982Z,0.70
2022-09-03T01:47:25.928Z,0.93
2022-09-03T01:49:52.379Z,1.00
2022-09-03T01:52:24.516Z,0.95
2022-09-03T01:55:02.161Z,1.13
2022-09-03T01:57:47.578Z,1.20
2022-09-03T02:00:15.642Z,1.10
2022-09-03T02:02:48.058Z,0.90
2022-09-03T02:05:24.797Z,1.30
2022-09-03T02:07:56.901Z,0.93
2022-09-03T02:10:34.570Z,0.80
2022-09-03T02:13:09.861Z,1.00
2022-09-03T02:15:41.936Z,0.93
2022-09-03T02:18:11.347Z,1.00
2022-09-03T02:20:38.472Z,0.80
2022-09-03T02:23:05.153Z,1.13
2022-09-03T02:25:44.724Z,0.77
2022-09-03T02:28:17.632Z,1.13
2022-09-03T02:30:44.924Z,1.10
2022-09-03T02:33:11.544Z,0.80
2022-09-03T02:35:39.729Z,0.90
2022-09-03T02:38:17.061Z,0.88
2022-09-03T02:40:43.834Z,0.65
2022-09-03T02:43:14.967Z,0.90
2022-09-03T02:45:48.596Z,1.00
2022-09-03T02:48:17.740Z,1.02
2022-09-03T02:50:44.178Z,0.70
2022-09-03T02:53:10.606Z,0.90
2022-09-03T02:55:37.079Z,0.82
2022-09-03T02:58:05.958Z,0.75
2022-09-03T03:00:33.019Z,0.93
2022-09-03T03:02:59.605Z,0.88
2022-09-03T03:05:30.491Z,0.82
2022-09-03T03:07:58.361Z,0.98
2022-09-03T03:10:25.173Z,1.05
2022-09-03T03:12:51.694Z,1.05
2022-09-03T03:15:18.210Z,0.90
2022-09-03T03:17:44.669Z,0.90
2022-09-03T03:20:11.154Z,0.90
2022-09-03T03:22:37.599Z,0.80
2022-09-03T03:25:05.742Z,0.80
2022-09-03T03:27:32.290Z,1.02
2022-09-03T03:29:58.721Z,0.82
2022-09-03T03:32:25.144Z,0.82
2022-09-03T03:34:51.594Z,1.02
2022-09-03T03:37:18.286Z,0.80
2022-09-03T03:39:44.810Z,0.80
2022-09-03T03:42:11.481Z,1.10
2022-09-03T03:44:37.945Z,0.95
2022-09-03T03:47:06.007Z,0.77
2022-09-03T03:49:32.786Z,0.60
2022-09-03T03:51:59.297Z,1.00
2022-09-03T03:54:26.053Z,1.33
2022-09-03T03:56:55.414Z,0.93
2022-09-03T03:59:22.468Z,0.70
2022-09-03T04:01:50.521Z,0.90
2022-09-03T04:04:17.380Z,0.70
2022-09-03T04:06:43.884Z,0.93
2022-09-03T04:09:10.353Z,0.95
2022-09-03T04:11:37.201Z,1.00
2022-09-03T04:14:03.886Z,1.10
2022-09-03T04:16:31.919Z,1.02
2022-09-03T04:18:59.017Z,0.88
2022-09-03T04:21:26.853Z,0.80
2022-09-03T04:23:55.043Z,1.10
2022-09-03T04:26:23.304Z,0.82
2022-09-03T04:28:49.803Z,1.23
2022-09-03T04:31:21.575Z,0.90
2022-09-03T04:33:48.866Z,0.90
2022-09-03T04:36:23.080Z,0.70
2022-09-03T04:38:52.136Z,0.82
2022-09-03T04:41:24.442Z,0.90
2022-09-03T04:43:56.541Z,0.80
2022-09-03T04:46:27.209Z,1.10
2022-09-03T04:48:58.341Z,1.25
2022-09-03T04:51:29.951Z,1.35
2022-09-03T04:53:58.051Z,0.73
2022-09-03T04:56:27.371Z,0.80
2022-09-03T04:58:57.588Z,1.17
2022-09-03T05:01:26.989Z,1.05
2022-09-03T05:03:54.040Z,1.00
2022-09-03T05:06:20.710Z,1.10
2022-09-03T05:08:51.251Z,1.20
2022-09-03T05:11:18.368Z,1.33
2022-09-03T05:13:48.077Z,1.10
2022-09-03T05:16:14.767Z,1.13
2022-09-03T05:18:42.597Z,1.10
2022-09-03T05:21:10.137Z,0.90
2022-09-03T05:23:37.896Z,0.60
2022-09-03T05:26:09.091Z,0.85
2022-09-03T05:28:38.929Z,0.80
2022-09-03T05:31:06.976Z,0.82
2022-09-03T05:33:34.778Z,1.10
2022-09-03T05:36:02.182Z,0.80
2022-09-03T05:38:28.933Z,1.17
2022-09-03T05:40:58.420Z,1.02
2022-09-03T05:43:25.149Z,0.98
2022-09-03T05:45:51.943Z,1.00
2022-09-03T05:48:18.731Z,0.98
2022-09-03T05:50:45.187Z,1.02
2022-09-03T05:53:11.659Z,0.77
2022-09-03T05:55:38.111Z,0.80
2022-09-03T05:58:04.614Z,1.00
2022-09-03T06:00:32.196Z,1.15
2022-09-03T06:03:00.202Z,1.27
2022-09-03T06:05:32.389Z,1.27
2022-09-03T06:07:59.551Z,1.33
2022-09-03T06:10:37.677Z,1.08
2022-09-03T06:13:08.988Z,0.93
2022-09-03T06:15:36.229Z,1.02
2022-09-03T06:18:05.673Z,0.73
2022-09-03T06:20:37.357Z,1.00
2022-09-03T06:23:08.229Z,0.90
2022-09-03T06:25:35.753Z,0.70
2022-09-03T06:28:02.974Z,1.20
2022-09-03T06:30:29.514Z,1.48
2022-09-03T06:32:56.034Z,0.80
2022-09-03T06:35:22.495Z,0.85
2022-09-03T06:37:51.402Z,0.88
2022-09-03T06:40:26.060Z,1.00
2022-09-03T06:43:03.625Z,0.80
2022-09-03T06:45:31.516Z,1.23
2022-09-03T06:47:59.137Z,1.00
2022-09-03T06:50:25.899Z,1.17
2022-09-03T06:53:03.758Z,1.00
2022-09-03T06:55:30.955Z,1.02
2022-09-03T06:58:04.903Z,0.90
2022-09-03T07:00:37.119Z,1.00
2022-09-03T07:03:08.618Z,1.05
2022-09-03T07:05:35.260Z,0.70
2022-09-03T07:08:03.941Z,0.80
2022-09-03T07:10:30.565Z,1.30
2022-09-03T07:12:57.066Z,1.33
2022-09-03T07:15:24.020Z,0.90
2022-09-03T07:17:50.809Z,1.30
2022-09-03T07:20:17.282Z,0.88
2022-09-03T07:22:43.849Z,0.90
2022-09-03T07:25:10.363Z,0.93
2022-09-03T07:27:36.880Z,0.90
2022-09-03T07:30:03.947Z,0.93
2022-09-03T07:32:33.255Z,1.17
2022-09-03T07:34:59.737Z,1.50
2022-09-03T07:37:26.209Z,1.17
2022-09-03T07:39:53.109Z,1.20
2022-09-03T07:42:20.968Z,1.05
2022-09-03T07:44:47.526Z,0.93
2022-09-03T07:47:14.968Z,1.10
2022-09-03T07:49:42.624Z,0.70
2022-09-03T07:52:11.941Z,0.70
2022-09-03T07:54:38.797Z,1.30
2022-09-03T07:57:06.033Z,0.95
2022-09-03T07:59:33.125Z,1.00
2022-09-03T08:01:59.728Z,1.10
2022-09-03T08:04:26.206Z,1.15
2022-09-03T08:06:55.742Z,1.15
2022-09-03T08:09:22.581Z,1.10
2022-09-03T08:11:49.333Z,1.05
2022-09-03T08:14:16.570Z,1.17
2022-09-03T08:16:45.872Z,1.08
2022-09-03T08:19:13.255Z,0.93
2022-09-03T08:21:42.841Z,1.17
2022-09-03T08:24:11.091Z,1.05
2022-09-03T08:26:47.573Z,1.52
2022-09-03T08:29:18.425Z,1.10
2022-09-03T08:31:45.053Z,1.30
2022-09-03T08:34:13.156Z,2.67
2022-09-03T08:36:41.459Z,2.17
2022-09-03T08:39:11.923Z,1.38
2022-09-03T08:41:50.696Z,1.20
2022-09-03T08:44:29.150Z,1.05
2022-09-03T08:47:01.656Z,0.90
2022-09-03T08:49:32.679Z,1.00
2022-09-03T08:52:01.392Z,0.90
2022-09-03T08:54:29.744Z,0.82
2022-09-03T08:56:58.697Z,1.08
2022-09-03T08:59:32.995Z,1.30
2022-09-03T09:02:26.281Z,1.50
2022-09-03T09:05:14.300Z,1.45
2022-09-03T09:08:06.611Z,1.25
2022-09-03T09:10:36.458Z,1.00
2022-09-03T09:13:35.972Z,1.08
2022-09-03T09:16:19.484Z,1.08
2022-09-03T09:19:04.905Z,1.15
2022-09-03T09:21:34.014Z,0.90
2022-09-03T09:24:08.671Z,1.05
2022-09-03T09:26:42.123Z,1.00
2022-09-03T09:29:12.725Z,1.20
2022-09-03T09:31:40.594Z,1.33
2022-09-03T09:34:08.535Z,1.55
2022-09-03T09:36:49.110Z,1.02
2022-09-03T09:39:16.082Z,1.20
2022-09-03T09:41:43.883Z,1.00
2022-09-03T09:44:19.666Z,1.20
2022-09-03T09:46:49.235Z,0.93
2022-09-03T09:49:31.571Z,1.30
2022-09-03T09:52:14.851Z,1.38
2022-09-03T09:54:42.338Z,1.10
2022-09-03T09:57:17.788Z,1.27
2022-09-03T09:59:45.908Z,1.40
2022-09-03T10:02:22.540Z,1.15
2022-09-03T10:04:49.519Z,1.25
2022-09-03T10:07:22.941Z,1.40
2022-09-03T10:10:00.173Z,1.40
2022-09-03T10:12:40.443Z,1.40
2022-09-03T10:15:25.950Z,1.17
2022-09-03T10:17:55.538Z,1.25
2022-09-03T10:20:33.920Z,1.65
2022-09-03T10:23:00.569Z,1.50
2022-09-03T10:25:30.561Z,1.90
2022-09-03T10:27:59.922Z,3.30
2022-09-03T10:30:26.625Z,2.50
2022-09-03T10:33:08.963Z,1.83
2022-09-03T10:35:39.512Z,1.88
2022-09-03T10:38:09.019Z,1.55
2022-09-03T10:40:41.832Z,1.73
2022-09-03T10:43:15.893Z,1.50
2022-09-03T10:46:03.174Z,1.40
2022-09-03T10:48:41.335Z,1.35
2022-09-03T10:51:20.508Z,1.58
2022-09-03T10:54:06.066Z,1.70
2022-09-03T10:56:39.789Z,1.45
2022-09-03T10:59:29.253Z,1.20
2022-09-03T11:01:59.073Z,2.17
2022-09-03T11:04:38.094Z,1.30
2022-09-03T11:07:06.125Z,1.70
2022-09-03T11:09:40.160Z,1.33
2022-09-03T11:12:10.629Z,1.70
2022-09-03T11:14:40.176Z,1.65
2022-09-03T11:17:20.357Z,1.20
2022-09-03T11:20:20.748Z,1.40
2022-09-03T11:22:48.813Z,1.58
2022-09-03T11:25:17.442Z,1.20
2022-09-03T11:27:47.037Z,1.60
2022-09-03T11:30:14.941Z,1.10
2022-09-03T11:32:41.597Z,1.00
2022-09-03T11:35:25.318Z,1.35
2022-09-03T11:37:55.024Z,1.48
2022-09-03T11:40:29.454Z,1.20
2022-09-03T11:43:05.250Z,1.33
2022-09-03T11:45:38.867Z,1.42
2022-09-03T11:48:18.926Z,1.30
2022-09-03T11:50:55.101Z,1.55
2022-09-03T11:53:25.263Z,1.30
2022-09-03T11:56:02.155Z,1.35
2022-09-03T11:58:39.394Z,1.45
2022-09-03T12:01:10.554Z,1.30
2022-09-03T12:03:50.263Z,1.35
2022-09-03T12:06:23.457Z,1.30
2022-09-03T12:08:53.179Z,1.30
2022-09-03T12:11:45.994Z,1.40
2022-09-03T12:14:33.345Z,1.45
2022-09-03T12:16:59.838Z,1.40
2022-09-03T12:19:26.362Z,1.45
2022-09-03T12:21:53.169Z,1.40
2022-09-03T12:24:20.158Z,1.27
2022-09-03T12:26:46.659Z,1.77
2022-09-03T12:29:24.091Z,2.05
2022-09-03T12:31:56.439Z,1.70
2022-09-03T12:34:23.705Z,1.85
2022-09-03T12:36:51.710Z,1.90
2022-09-03T12:42:15.753Z,1.80
2022-09-03T12:44:42.520Z,1.55
2022-09-03T12:47:37.130Z,2.00
2022-09-03T12:50:11.758Z,1.73
2022-09-03T12:52:38.365Z,1.73
2022-09-03T12:55:08.421Z,2.08
2022-09-03T12:57:43.138Z,2.20
2022-09-03T13:00:11.319Z,1.88
2022-09-03T13:02:56.423Z,1.92
2022-09-03T13:05:49.741Z,2.45
2022-09-03T13:08:30.801Z,1.70
2022-09-03T13:11:00.245Z,1.70
2022-09-03T13:13:28.077Z,1.95
2022-09-03T13:16:08.265Z,2.17
2022-09-03T13:18:54.414Z,1.52
2022-09-03T13:21:27.120Z,1.70
2022-09-03T13:23:53.751Z,2.10
2022-09-03T13:26:20.769Z,1.90
2022-09-03T13:28:58.290Z,1.92
2022-09-03T13:31:45.458Z,1.70
2022-09-03T13:34:18.906Z,1.60
2022-09-03T13:36:49.407Z,1.70
2022-09-03T13:39:24.364Z,1.63
2022-09-03T13:42:18.224Z,2.00
2022-09-03T13:45:01.467Z,1.92
2022-09-03T13:48:00.658Z,1.75
2022-09-03T13:50:28.849Z,2.00
2022-09-03T13:53:07.630Z,1.90
2022-09-03T13:55:42.119Z,2.13
2022-09-03T13:58:18.226Z,1.83
2022-09-03T14:00:50.718Z,1.60
2022-09-03T14:03:22.986Z,1.60
2022-09-03T14:06:08.448Z,1.50
2022-09-03T14:08:58.932Z,1.85
2022-09-03T14:11:32.641Z,1.90
2022-09-03T14:14:17.910Z,1.48
2022-09-03T14:16:57.498Z,1.70
2022-09-03T14:19:33.084Z,1.83
2022-09-03T14:22:13.839Z,1.92
2022-09-03T14:24:40.264Z,1.60
2022-09-03T14:27:07.575Z,1.42
2022-09-03T14:29:35.594Z,1.83
2022-09-03T14:32:19.075Z,1.70
2022-09-03T14:34:58.332Z,1.33
2022-09-03T14:37:31.994Z,1.58
2022-09-03T14:40:13.417Z,1.48
2022-09-03T14:42:59.142Z,1.83
2022-09-03T14:45:35.608Z,1.30
2022-09-03T14:48:21.163Z,1.55
2022-09-03T14:51:00.318Z,1.63
2022-09-03T14:53:49.633Z,1.58
2022-09-03T14:56:35.108Z,1.63
2022-09-03T14:59:20.443Z,1.88
2022-09-03T15:02:09.633Z,1.50
2022-09-03T15:04:36.114Z,1.40
2022-09-03T15:07:02.593Z,1.58
2022-09-03T15:09:34.160Z,5.05
2022-09-03T15:12:03.021Z,12.90
2022-09-03T15:14:36.277Z,2.33
2022-09-03T15:17:18.329Z,2.03
2022-09-03T15:20:00.533Z,2.30
2022-09-03T15:22:36.259Z,1.63
2022-09-03T15:25:11.833Z,1.65
2022-09-03T15:27:52.285Z,1.40
2022-09-03T15:30:20.165Z,1.63
2022-09-03T15:32:49.641Z,1.80
2022-09-03T15:35:33.606Z,1.60
2022-09-03T15:38:08.296Z,1.73
2022-09-03T15:40:36.613Z,1.90
2022-09-03T15:43:09.123Z,1.70
2022-09-03T15:45:38.065Z,1.90
2022-09-03T15:48:21.731Z,1.88
2022-09-03T15:51:23.866Z,1.85
2022-09-03T15:53:57.198Z,2.60
2022-09-03T15:56:30.063Z,2.55
2022-09-03T15:59:02.599Z,1.65
2022-09-03T16:01:32.289Z,1.60
2022-09-03T16:04:09.648Z,1.67
2022-09-03T16:06:55.322Z,2.25
2022-09-03T16:09:21.856Z,1.85
2022-09-03T16:12:08.523Z,1.80
2022-09-03T16:14:41.803Z,1.80
2022-09-03T16:17:16.128Z,2.45
2022-09-03T16:19:48.571Z,2.10
2022-09-03T16:22:41.509Z,3.08
2022-09-03T16:25:23.083Z,2.15
2022-09-03T16:28:14.147Z,2.00
2022-09-03T16:30:50.650Z,1.90
2022-09-03T16:33:18.950Z,2.38
2022-09-03T16:35:54.179Z,2.90
2022-09-03T16:38:43.822Z,2.20
2022-09-03T16:41:17.073Z,2.15
2022-09-03T16:43:53.295Z,2.33
2022-09-03T16:46:25.919Z,1.90
2022-09-03T16:49:05.110Z,1.83
2022-09-03T16:51:43.640Z,2.00
2022-09-03T16:54:10.271Z,1.90
2022-09-03T16:56:39.959Z,2.20
2022-09-03T16:59:09.473Z,2.13
2022-09-03T17:01:36.135Z,1.92
2022-09-03T17:04:21.451Z,2.20
2022-09-03T17:06:51.065Z,2.13
2022-09-03T17:09:36.395Z,2.20
2022-09-03T17:12:12.012Z,2.33
2022-09-03T17:14:38.477Z,2.25
2022-09-03T17:17:21.708Z,2.25
2022-09-03T17:19:52.394Z,2.15
2022-09-03T17:22:27.078Z,2.40
2022-09-03T17:25:12.079Z,2.13
2022-09-03T17:27:41.637Z,2.22
2022-09-03T17:30:10.201Z,2.38
2022-09-03T17:32:46.042Z,1.70
2022-09-03T17:35:18.669Z,2.42
2022-09-03T17:37:56.647Z,2.20
2022-09-03T17:40:33.547Z,2.10
2022-09-03T17:43:26.013Z,1.90
2022-09-03T17:46:11.545Z,1.90
2022-09-03T17:48:51.315Z,1.90
2022-09-03T17:51:36.861Z,2.30
2022-09-03T17:54:06.398Z,2.22
2022-09-03T17:56:36.510Z,1.80
2022-09-03T17:59:11.926Z,1.60
2022-09-03T18:01:45.609Z,2.25
2022-09-03T18:04:38.638Z,2.38
2022-09-03T18:07:31.651Z,2.15
2022-09-03T18:10:19.151Z,2.20
2022-09-03T18:13:03.097Z,1.80
2022-09-03T18:15:39.379Z,1.85
2022-09-03T18:18:12.071Z,1.88
2022-09-03T18:21:29.239Z,2.08
2022-09-03T18:24:24.045Z,1.83
2022-09-03T18:27:13.977Z,2.00
2022-09-03T18:30:03.618Z,2.00
2022-09-03T18:32:50.941Z,1.95
2022-09-03T18:35:39.384Z,1.88
2022-09-03T18:38:24.591Z,1.80
2022-09-03T18:41:21.031Z,1.80
2022-09-03T18:44:21.841Z,2.03
2022-09-03T18:50:37.454Z,1.60
2022-09-03T18:53:34.611Z,1.50
2022-09-03T18:56:55.431Z,1.60
2022-09-03T18:59:40.345Z,1.92
2022-09-03T19:02:44.635Z,1.80
2022-09-03T19:05:37.215Z,1.70
2022-09-03T19:08:22.200Z,2.05
2022-09-03T19:11:30.490Z,2.25
2022-09-03T19:14:17.993Z,2.20
2022-09-03T19:17:20.181Z,2.13
2022-09-03T19:20:32.507Z,2.38
2022-09-03T19:23:17.773Z,2.35
2022-09-03T19:26:02.820Z,2.97
2022-09-03T19:28:52.178Z,1.73
2022-09-03T19:31:41.296Z,2.05
2022-09-03T19:34:45.603Z,2.10
2022-09-03T19:37:37.073Z,2.13
2022-09-03T19:40:47.310Z,2.00
2022-09-03T19:43:48.352Z,1.70
2022-09-03T19:46:52.402Z,2.15
2022-09-03T19:50:00.341Z,2.17
2022-09-03T19:53:00.455Z,2.22
2022-09-03T19:55:51.821Z,2.30
2022-09-03T19:58:44.116Z,2.20
2022-09-03T20:01:30.288Z,2.00
2022-09-03T20:04:20.584Z,2.15
2022-09-03T20:07:06.199Z,1.73
2022-09-03T20:09:53.483Z,1.90
2022-09-03T20:12:21.210Z,2.00
2022-09-03T20:14:51.793Z,1.80
2022-09-03T20:17:42.595Z,1.75
2022-09-03T20:20:15.211Z,1.95
2022-09-03T20:22:50.545Z,1.58
2022-09-03T20:25:26.681Z,2.50
2022-09-03T20:28:11.535Z,2.33
2022-09-03T20:30:51.664Z,2.38
2022-09-03T20:33:27.408Z,2.17
2022-09-03T20:36:01.757Z,2.20
2022-09-03T20:38:34.427Z,2.00
2022-09-03T20:41:19.457Z,1.77
2022-09-03T20:43:56.538Z,2.00
2022-09-03T20:46:48.110Z,2.30
2022-09-03T20:49:20.619Z,2.05
2022-09-03T20:51:53.197Z,1.83
2022-09-03T20:54:21.145Z,1.85
2022-09-03T20:57:02.785Z,1.80
2022-09-03T20:59:35.440Z,2.15
2022-09-03T21:02:01.907Z,2.22
2022-09-03T21:04:47.734Z,1.77
2022-09-03T21:07:26.408Z,2.00
2022-09-03T21:09:55.994Z,1.80
2022-09-03T21:12:34.644Z,1.90
2022-09-03T21:15:04.932Z,1.95
2022-09-03T21:17:51.529Z,2.05
2022-09-03T21:20:24.188Z,2.33
2022-09-03T21:22:59.798Z,2.22
2022-09-03T21:25:29.582Z,2.22
2022-09-03T21:28:17.807Z,1.83
2022-09-03T21:30:47.554Z,2.00
2022-09-03T21:33:19.339Z,2.35
2022-09-03T21:35:49.778Z,2.30
2022-09-03T21:38:21.965Z,2.60
2022-09-03T21:41:07.214Z,2.28
2022-09-03T21:43:48.643Z,2.30
2022-09-03T21:46:17.042Z,2.78
2022-09-03T21:48:48.704Z,2.78
2022-09-03T21:51:18.570Z,2.90
2022-09-03T21:53:50.870Z,3.22
2022-09-03T21:56:30.498Z,3.22
2022-09-03T21:59:08.727Z,3.15
2022-09-03T22:01:44.909Z,3.30
2022-09-03T22:04:11.461Z,3.08
2022-09-03T22:06:43.454Z,3.00
2022-09-03T22:09:28.889Z,3.20
2022-09-03T22:11:55.419Z,3.45
2022-09-03T22:14:22.017Z,3.10
2022-09-03T22:17:00.610Z,2.70
2022-09-03T22:19:28.013Z,3.00
2022-09-03T22:22:00.216Z,2.60
2022-09-03T22:24:39.286Z,2.92
2022-09-03T22:27:12.276Z,2.70
2022-09-03T22:30:02.890Z,2.65
2022-09-03T22:32:41.696Z,3.28
2022-09-03T22:35:27.058Z,3.20
2022-09-03T22:38:12.726Z,3.50
2022-09-03T22:40:42.614Z,2.58
2022-09-03T22:43:12.246Z,2.35
2022-09-03T22:46:11.188Z,1.98
2022-09-03T22:48:37.870Z,2.00
2022-09-03T22:51:04.574Z,2.40
2022-09-03T22:53:37.261Z,1.98
2022-09-03T22:56:10.801Z,2.38
2022-09-03T22:58:41.635Z,2.65
2022-09-03T23:01:10.670Z,2.25
2022-09-03T23:03:43.355Z,2.17
2022-09-03T23:06:15.593Z,2.30
2022-09-03T23:08:47.434Z,2.42
2022-09-03T23:11:26.228Z,2.75
2022-09-03T23:14:08.161Z,2.65
2022-09-03T23:16:47.107Z,2.53
2022-09-03T23:21:56.889Z,2.78
2022-09-03T23:24:26.515Z,2.88
2022-09-03T23:26:53.624Z,2.80
2022-09-03T23:29:25.961Z,2.70
2022-09-03T23:31:54.296Z,3.08
2022-09-03T23:34:21.110Z,2.47
2022-09-03T23:37:29.672Z,3.13
2022-09-03T23:39:34.057Z,3.60
2022-09-03T23:42:07.613Z,3.67
2022-09-03T23:44:46.143Z,3.34
2022-09-03T23:47:37.743Z,4.18
2022-09-03T23:50:04.182Z,3.65
2022-09-03T23:52:33.964Z,3.90
2022-09-03T23:55:18.880Z,3.67
2022-09-03T23:57:53.012Z,4.00
